»·PEaware :: DAL1694 KDEN-KPHX

DAL1694 :: KDEN-KPHX

FLIGHT INFORMATION

Flight Status: Arrived
Operator:
Delta Air Lines
More flights by this operator :: More flights under this callsign
Pilot: Ben F. (2808)
Aircraft: MCDONNELL-DOUGLAS MD-82
(MD82)
More flights by this aircraft type
Origin: KDEN Denver Intl
United States
Destination: KPHX Phoenix Sky Harbor Intl
United States
More flights between these airports :: More routes between these airports
Route: +SOLAR3 DAAYE GUP EAGUL6
File this flight plan on PilotEdge
Remarks:
Altitude:
(Current/Filed)
34,000ft
Speed:
(Current/Filed)
454kts
Departed: 15-May-18 05:55 PM
Arrived: 15-May-18 07:26 PM
Distance/Time
Traveled:
522nm/1:31
Distance/Time
To Go:
Arrived

Flight Plot

Page will automatically refresh every two minutes.


Map Options




Map Legend


Flown Route
Filed Route
Departure Airport
Arrival Airport
Navaid (VOR, NDB)
Fix

Horizontal Profiles

Position Reports

Time Latitude Longitude Heading Altitude Ground
Speed
15-May-18 17:39 39.853408 -104.676667 0 5440ft 0kts
15-May-18 17:40 39.853408 -104.676667 0 5440ft 0kts
15-May-18 17:41 39.853408 -104.676667 0 5440ft 0kts
15-May-18 17:42 39.853319 -104.676669 3 5440ft 2kts
15-May-18 17:43 39.852842 -104.677008 80 5440ft 2kts
15-May-18 17:44 39.852836 -104.677457 90 5440ft 0kts
15-May-18 17:45 39.852836 -104.677457 90 5440ft 0kts
15-May-18 17:46 39.852836 -104.677457 90 5440ft 0kts
15-May-18 17:47 39.852830 -104.676480 90 5440ft 7kts
15-May-18 17:48 39.852801 -104.671957 90 5440ft 19kts
15-May-18 17:49 39.852791 -104.666827 84 5440ft 15kts
15-May-18 17:50 39.852975 -104.664409 88 5440ft 5kts
15-May-18 17:51 39.855825 -104.662345 359 5440ft 20kts
15-May-18 17:52 39.860740 -104.662274 0 5440ft 15kts
15-May-18 17:53 39.861089 -104.661937 86 5440ft 0kts
15-May-18 17:54 39.860543 -104.660216 170 5440ft 11kts
15-May-18 17:55 39.854461 -104.660220 181 5440ft 92kts
15-May-18 17:56 39.812590 -104.661458 180 6797ft 174kts
15-May-18 17:57 39.758557 -104.664868 211 8995ft 217kts
15-May-18 17:58 39.696964 -104.699634 185 10038ft 287kts
15-May-18 17:59 39.606044 -104.703801 181 11927ft 346kts
15-May-18 18:00 39.502921 -104.707215 183 12674ft 416kts
15-May-18 18:01 39.421479 -104.713562 189 22530ft 228kts
15-May-18 18:02 39.322762 -104.733437 211 20072ft 378kts
15-May-18 18:03 39.271587 -104.845627 243 19639ft 376kts
15-May-18 18:04 39.208382 -104.962218 233 21905ft 423kts
15-May-18 18:05 39.133992 -105.076927 219 24412ft 395kts
15-May-18 18:06 39.038931 -105.139197 205 26658ft 410kts
15-May-18 18:07 38.932029 -105.200042 207 27745ft 427kts
15-May-18 18:08 38.827053 -105.265425 208 28863ft 429kts
15-May-18 18:09 38.718672 -105.334954 208 29299ft 442kts
15-May-18 18:10 38.611441 -105.403060 208 30926ft 423kts
15-May-18 18:11 38.506258 -105.469869 208 31913ft 421kts
15-May-18 18:12 38.401256 -105.536492 208 32795ft 420kts
15-May-18 18:13 38.296908 -105.601989 209 33566ft 419kts
15-May-18 18:14 38.192401 -105.666658 209 34199ft 420kts
15-May-18 18:15 38.085930 -105.733599 209 34222ft 431kts
15-May-18 18:16 37.982624 -105.807101 223 34238ft 424kts
15-May-18 18:17 37.901469 -105.914123 230 34233ft 420kts
15-May-18 18:18 37.821926 -106.023564 228 34242ft 421kts
15-May-18 18:19 37.740079 -106.129381 228 34308ft 422kts
15-May-18 18:20 37.657636 -106.234889 228 34325ft 420kts
15-May-18 18:21 37.575340 -106.339263 228 34363ft 419kts
15-May-18 18:22 37.506983 -106.425787 228 34411ft 418kts
15-May-18 18:23 37.424778 -106.529338 228 34450ft 417kts
15-May-18 18:24 37.342923 -106.631716 228 34460ft 415kts
15-May-18 18:25 37.261091 -106.733376 228 34459ft 413kts
15-May-18 18:26 37.179539 -106.835454 228 34436ft 412kts
15-May-18 18:27 37.098563 -106.936524 228 34322ft 410kts
15-May-18 18:28 37.017067 -107.037029 228 34312ft 410kts
15-May-18 18:29 36.936237 -107.137055 229 34230ft 408kts
15-May-18 18:30 36.842222 -107.253355 229 34210ft 407kts
15-May-18 18:31 36.761233 -107.352610 228 34197ft 407kts
15-May-18 18:32 36.694081 -107.434674 229 34216ft 406kts
15-May-18 18:33 36.613744 -107.532849 229 34215ft 404kts
15-May-18 18:34 36.533625 -107.630898 229 34213ft 402kts
15-May-18 18:35 36.453609 -107.727746 229 34150ft 400kts
15-May-18 18:36 36.373388 -107.824413 229 34135ft 400kts
15-May-18 18:37 36.293722 -107.920472 229 34136ft 399kts
15-May-18 18:38 36.214131 -108.016178 229 34143ft 400kts
15-May-18 18:39 36.134028 -108.111570 229 34149ft 399kts
15-May-18 18:40 36.054041 -108.206410 229 34156ft 398kts
15-May-18 18:41 35.973847 -108.301221 229 34159ft 399kts
15-May-18 18:42 35.893803 -108.396338 229 34166ft 399kts
15-May-18 18:43 35.813585 -108.490085 228 34172ft 398kts
15-May-18 18:44 35.733516 -108.583922 229 34176ft 398kts
15-May-18 18:45 35.653273 -108.677822 229 34178ft 397kts
15-May-18 18:46 35.572294 -108.770034 227 34179ft 396kts
15-May-18 18:47 35.492142 -108.863244 229 34179ft 395kts
15-May-18 18:48 35.415569 -108.959543 231 34181ft 394kts
15-May-18 18:49 35.340523 -109.056907 231 34182ft 392kts
15-May-18 18:50 35.265263 -109.154239 231 34183ft 393kts
15-May-18 18:51 35.190178 -109.251097 231 34179ft 393kts
15-May-18 18:52 35.114566 -109.347723 231 34166ft 392kts
15-May-18 18:53 35.039482 -109.444083 231 34171ft 391kts
15-May-18 18:54 34.964279 -109.540074 231 34157ft 391kts
15-May-18 18:55 34.888897 -109.636355 231 34156ft 392kts
15-May-18 18:56 34.813970 -109.731854 231 34158ft 391kts
15-May-18 18:57 34.739051 -109.826993 231 34162ft 390kts
15-May-18 18:58 34.678284 -109.932953 249 34175ft 380kts
15-May-18 18:59 34.639664 -110.051963 249 34186ft 378kts
15-May-18 19:00 34.597857 -110.169867 248 34187ft 379kts
15-May-18 19:01 34.553956 -110.286611 247 33524ft 379kts
15-May-18 19:02 34.510649 -110.401123 247 31536ft 374kts
15-May-18 19:03 34.467584 -110.514704 246 29530ft 367kts
15-May-18 19:04 34.424938 -110.625303 246 27532ft 359kts
15-May-18 19:05 34.383623 -110.733840 246 25677ft 352kts
15-May-18 19:06 34.337203 -110.837000 232 23894ft 349kts
15-May-18 19:07 34.269781 -110.919813 227 22197ft 340kts
15-May-18 19:08 34.204940 -110.999576 228 20672ft 323kts
15-May-18 19:09 34.144033 -111.077771 228 19289ft 318kts
15-May-18 19:10 34.083787 -111.154630 227 18411ft 315kts
15-May-18 19:11 34.024516 -111.229916 228 17487ft 298kts
15-May-18 19:12 33.967697 -111.302055 227 16385ft 296kts
15-May-18 19:13 33.911657 -111.373590 227 14967ft 290kts
15-May-18 19:14 33.853097 -111.440015 217 13471ft 288kts
15-May-18 19:15 33.788271 -111.494125 216 11972ft 280kts
15-May-18 19:16 33.724689 -111.547420 215 10463ft 275kts
15-May-18 19:17 33.665102 -111.597570 215 9060ft 245kts
15-May-18 19:18 33.609982 -111.643612 215 7764ft 237kts
15-May-18 19:19 33.556452 -111.688607 216 6467ft 233kts
15-May-18 19:20 33.503006 -111.731571 213 5203ft 228kts
15-May-18 19:21 33.457446 -111.775984 237 4724ft 203kts
15-May-18 19:22 33.441756 -111.837967 273 4040ft 198kts
15-May-18 19:23 33.442462 -111.904222 263 2575ft 189kts
15-May-18 19:24 33.440968 -111.960284 269 1681ft 154kts
15-May-18 19:25 33.440872 -112.008232 269 1144ft 66kts
15-May-18 19:26 33.439748 -112.013237 97 1144ft 6kts
15-May-18 19:27 33.439718 -112.012549 90 1144ft 1kts
15-May-18 19:28 33.439718 -112.009381 89 1144ft 13kts
15-May-18 19:29 33.439733 -112.004232 90 1144ft 12kts
15-May-18 19:30 33.438841 -112.000929 136 1144ft 7kts
15-May-18 19:31 33.438096 -112.000691 187 1144ft 0kts

Navigation Log

Ident Type
1. KDEN Airport
2. GUP Navaid
3. SLIDR Fix
4. PAYSO Fix
5. EAGUL Fix
6. PICHR Fix
7. HOMRR Fix
8. QUENY Fix
9. HINEY Fix
10. BASBL Fix
11. KPHX Airport